createdAt,value
2019-03-11T00:00:32.770Z,10.20
2019-03-11T00:03:04.367Z,7.30
2019-03-11T00:05:38.992Z,5.20
2019-03-11T00:08:12.129Z,5.67
2019-03-11T00:10:44.710Z,10.27
2019-03-11T00:13:16.283Z,7.27
2019-03-11T00:15:49.513Z,9.07
2019-03-11T00:18:21.083Z,11.20
2019-03-11T00:20:53.668Z,6.40
2019-03-11T00:23:25.294Z,5.87
2019-03-11T00:26:01.647Z,9.80
2019-03-11T00:28:34.834Z,10.43
2019-03-11T00:31:06.389Z,11.73
2019-03-11T00:33:38.072Z,7.70
2019-03-11T00:36:16.087Z,5.00
2019-03-11T00:38:50.553Z,6.40
2019-03-11T00:41:20.955Z,6.13
2019-03-11T00:43:52.522Z,13.53
2019-03-11T00:46:30.659Z,10.00
2019-03-11T00:49:02.301Z,7.60
2019-03-11T00:51:36.184Z,10.67
2019-03-11T00:54:09.099Z,7.63
2019-03-11T00:56:42.339Z,8.70
2019-03-11T00:59:16.137Z,10.83
2019-03-11T01:01:47.702Z,13.43
2019-03-11T01:04:22.010Z,11.40
2019-03-11T01:06:53.569Z,9.90
2019-03-11T01:09:25.103Z,7.10
2019-03-11T01:11:58.853Z,8.80
2019-03-11T01:14:30.398Z,5.23
2019-03-11T01:17:03.658Z,6.97
2019-03-11T01:19:35.234Z,11.37
2019-03-11T01:22:06.799Z,8.83
2019-03-11T01:24:38.387Z,10.20
2019-03-11T01:27:11.598Z,9.03
2019-03-11T01:29:43.171Z,6.53
2019-03-11T01:32:16.809Z,13.87
2019-03-11T01:34:48.394Z,7.90
2019-03-11T01:37:19.941Z,9.20
2019-03-11T01:39:51.532Z,9.13
2019-03-11T01:42:25.198Z,9.83
2019-03-11T01:44:57.762Z,10.50
2019-03-11T01:47:34.413Z,10.57
2019-03-11T01:50:07.755Z,13.33
2019-03-11T01:52:47.795Z,11.17
2019-03-11T01:55:19.374Z,7.90
2019-03-11T01:57:50.912Z,6.20
2019-03-11T02:00:26.569Z,8.20
2019-03-11T02:02:58.047Z,11.50
2019-03-11T02:05:29.687Z,6.47
2019-03-11T02:08:01.260Z,11.23
2019-03-11T02:10:36.521Z,8.27
2019-03-11T02:13:11.404Z,11.37
2019-03-11T02:15:43.100Z,8.17
2019-03-11T02:18:16.417Z,8.00
2019-03-11T02:20:47.909Z,12.43
2019-03-11T02:23:19.477Z,8.77
2019-03-11T02:25:51.029Z,10.63
2019-03-11T02:28:22.594Z,8.80
2019-03-11T02:30:54.174Z,10.07
2019-03-11T02:33:25.735Z,11.87
2019-03-11T02:36:07.796Z,12.25
2019-03-11T02:38:42.397Z,8.20
2019-03-11T02:41:15.643Z,9.47
2019-03-11T02:43:47.180Z,11.57
2019-03-11T02:46:21.865Z,6.97
2019-03-11T02:48:54.881Z,8.23
2019-03-11T02:51:31.359Z,12.97
2019-03-11T02:54:09.215Z,12.10
2019-03-11T02:56:44.057Z,11.93
2019-03-11T02:59:21.539Z,7.03
2019-03-11T03:02:21.084Z,12.43
2019-03-11T03:05:04.260Z,9.78
2019-03-11T03:07:38.796Z,8.83
2019-03-11T03:10:10.764Z,6.47
2019-03-11T03:12:42.298Z,8.93
2019-03-11T03:15:16.750Z,10.23
2019-03-11T03:17:48.295Z,11.30
2019-03-11T03:20:20.151Z,11.78
2019-03-11T03:22:51.722Z,14.10
2019-03-11T03:25:33.947Z,10.77
2019-03-11T03:27:56.662Z,11.10
2019-03-11T03:30:28.340Z,8.63
2019-03-11T03:33:00.178Z,12.73
2019-03-11T03:35:31.730Z,11.00
2019-03-11T03:38:03.539Z,4.85
2019-03-11T03:40:35.396Z,13.62
2019-03-11T03:43:07.569Z,11.40
2019-03-11T03:45:44.082Z,10.83
2019-03-11T03:48:16.251Z,6.90
2019-03-11T03:50:48.070Z,7.55
2019-03-11T03:53:19.633Z,11.63
2019-03-11T03:55:53.006Z,8.18
2019-03-11T03:58:24.534Z,17.70
2019-03-11T04:00:56.397Z,12.00
2019-03-11T04:03:27.918Z,10.17
2019-03-11T04:05:59.789Z,8.43
2019-03-11T04:08:31.322Z,8.60
2019-03-11T04:11:02.922Z,8.00
2019-03-11T04:13:34.419Z,11.03
2019-03-11T04:16:05.969Z,7.20
2019-03-11T04:18:57.419Z,9.13
2019-03-11T04:21:28.941Z,6.73
2019-03-11T04:24:01.879Z,6.83
2019-03-11T04:26:33.440Z,6.47
2019-03-11T04:29:05.265Z,13.20
2019-03-11T04:31:36.837Z,16.20
2019-03-11T04:34:08.415Z,9.40
2019-03-11T04:36:39.960Z,7.90
2019-03-11T04:39:11.786Z,6.60
2019-03-11T04:41:43.657Z,9.10
2019-03-11T04:44:15.233Z,8.90
2019-03-11T04:46:46.786Z,10.93
2019-03-11T04:49:18.389Z,7.80
2019-03-11T04:51:49.934Z,9.00
2019-03-11T04:54:21.479Z,9.30
2019-03-11T04:56:53.027Z,8.13
2019-03-11T04:59:24.625Z,9.97
2019-03-11T05:01:56.210Z,14.87
2019-03-11T05:04:27.931Z,11.17
2019-03-11T05:06:59.478Z,13.50
2019-03-11T05:09:31.150Z,8.00
2019-03-11T05:12:02.699Z,6.60
2019-03-11T05:14:34.296Z,10.20
2019-03-11T05:17:08.877Z,14.20
2019-03-11T05:19:40.731Z,8.60
2019-03-11T05:22:12.279Z,6.43
2019-03-11T05:24:43.840Z,12.40
2019-03-11T05:27:15.428Z,9.00
2019-03-11T05:29:46.959Z,14.93
2019-03-11T05:32:18.786Z,10.25
2019-03-11T05:34:50.980Z,12.35
2019-03-11T05:37:22.474Z,12.27
2019-03-11T05:39:54.346Z,13.10
2019-03-11T05:42:27.936Z,7.80
2019-03-11T05:44:59.521Z,7.13
2019-03-11T05:47:31.350Z,7.90
2019-03-11T05:50:03.409Z,11.03
2019-03-11T05:52:35.214Z,6.97
2019-03-11T05:55:07.742Z,8.40
2019-03-11T05:57:39.560Z,7.03
2019-03-11T06:00:19.658Z,5.35
2019-03-11T06:02:51.228Z,11.23
2019-03-11T06:05:23.098Z,6.08
2019-03-11T06:07:57.554Z,4.90
2019-03-11T06:10:29.400Z,6.75
2019-03-11T06:13:05.352Z,6.00
2019-03-11T06:15:40.383Z,6.72
2019-03-11T06:18:12.234Z,4.47
2019-03-11T06:20:53.588Z,3.53
2019-03-11T06:23:25.158Z,3.47
2019-03-11T06:25:58.384Z,3.27
2019-03-11T06:28:34.859Z,8.50
2019-03-11T06:31:09.422Z,3.87
2019-03-11T06:33:41.012Z,2.73
2019-03-11T06:36:15.775Z,4.53
2019-03-11T06:38:52.195Z,5.92
2019-03-11T06:41:24.006Z,4.50
2019-03-11T06:43:56.004Z,3.62
2019-03-11T06:46:27.830Z,3.80
2019-03-11T06:49:08.310Z,4.37
2019-03-11T06:51:41.470Z,5.53
2019-03-11T06:54:17.817Z,6.72
2019-03-11T06:56:50.497Z,7.40
2019-03-11T06:59:22.078Z,4.90
2019-03-11T07:01:53.787Z,3.90
2019-03-11T07:04:25.345Z,5.07
2019-03-11T07:06:56.901Z,2.67
2019-03-11T07:09:30.168Z,2.40
2019-03-11T07:12:01.757Z,1.27
2019-03-11T07:14:35.751Z,1.75
2019-03-11T07:17:09.057Z,1.22
2019-03-11T07:19:42.181Z,1.62
2019-03-11T07:22:24.288Z,1.60
2019-03-11T07:25:08.089Z,1.62
2019-03-11T07:27:39.919Z,1.95
2019-03-11T07:30:12.983Z,1.95
2019-03-11T07:32:44.800Z,1.25
2019-03-11T07:35:16.623Z,0.93
2019-03-11T07:37:48.442Z,2.47
2019-03-11T07:40:29.830Z,3.83
2019-03-11T07:42:57.677Z,1.82
2019-03-11T07:45:31.702Z,2.05
2019-03-11T07:48:06.391Z,1.42
2019-03-11T07:50:38.203Z,1.80
2019-03-11T07:53:10.044Z,1.80
2019-03-11T07:55:41.842Z,2.25
2019-03-11T07:58:20.766Z,1.30
2019-03-11T08:00:54.137Z,2.02
2019-03-11T08:03:27.169Z,1.45
2019-03-11T08:06:01.064Z,2.75
2019-03-11T08:08:32.900Z,1.55
2019-03-11T08:11:09.113Z,2.02
2019-03-11T08:13:43.989Z,2.33
2019-03-11T08:16:15.795Z,1.50
2019-03-11T08:18:48.943Z,3.75
2019-03-11T08:21:22.104Z,4.12
2019-03-11T08:23:55.462Z,2.45
2019-03-11T08:26:28.981Z,2.10
2019-03-11T08:29:03.444Z,2.33
2019-03-11T08:31:35.275Z,1.90
2019-03-11T08:34:07.111Z,2.90
2019-03-11T08:36:41.763Z,2.22
2019-03-11T08:39:13.600Z,4.92
2019-03-11T08:41:45.207Z,1.93
2019-03-11T08:44:16.740Z,1.70
2019-03-11T08:46:48.289Z,3.43
2019-03-11T08:49:20.140Z,3.37
2019-03-11T08:51:51.725Z,1.80
2019-03-11T08:54:23.270Z,2.60
2019-03-11T08:56:55.128Z,2.90
2019-03-11T08:59:26.970Z,3.40
2019-03-11T09:02:04.016Z,4.50
2019-03-11T09:04:35.597Z,4.40
2019-03-11T09:07:09.847Z,3.47
2019-03-11T09:09:41.412Z,2.90
2019-03-11T09:12:13.216Z,4.07
2019-03-11T09:14:44.903Z,3.67
2019-03-11T09:17:17.562Z,6.40
2019-03-11T09:19:49.386Z,2.30
2019-03-11T09:22:25.428Z,4.50
2019-03-11T09:24:57.016Z,3.73
2019-03-11T09:27:32.447Z,3.43
2019-03-11T09:30:07.496Z,2.80
2019-03-11T09:32:39.416Z,3.63
2019-03-11T09:35:11.164Z,4.07
2019-03-11T09:37:45.042Z,4.67
2019-03-11T09:40:19.025Z,4.07
2019-03-11T09:42:52.242Z,3.40
2019-03-11T09:45:24.389Z,6.33
2019-03-11T09:47:56.158Z,3.63
2019-03-11T09:50:27.703Z,4.30
2019-03-11T09:52:59.257Z,3.80
2019-03-11T09:55:30.844Z,7.73
2019-03-11T09:58:02.442Z,5.03
2019-03-11T10:00:34.055Z,5.13
2019-03-11T10:03:10.728Z,10.40
2019-03-11T10:05:43.525Z,11.07
2019-03-11T10:08:15.239Z,6.10
2019-03-11T10:10:46.917Z,3.30
2019-03-11T10:13:21.494Z,6.20
2019-03-11T10:15:54.193Z,5.97
2019-03-11T10:18:29.401Z,5.37
2019-03-11T10:21:02.680Z,6.60
2019-03-11T10:23:34.250Z,4.50
2019-03-11T10:26:08.823Z,3.30
2019-03-11T10:28:46.246Z,7.27
2019-03-11T10:31:21.202Z,4.30
2019-03-11T10:33:52.755Z,4.03
2019-03-11T10:36:27.890Z,6.37
2019-03-11T10:38:59.446Z,3.63
2019-03-11T10:41:37.526Z,5.53
2019-03-11T10:44:09.833Z,3.53
2019-03-11T10:46:44.997Z,4.40
2019-03-11T10:49:17.670Z,5.27
2019-03-11T10:51:52.344Z,6.40
2019-03-11T10:54:24.074Z,3.33
2019-03-11T10:56:58.627Z,4.63
2019-03-11T10:59:31.682Z,3.50
2019-03-11T11:02:03.248Z,4.90
2019-03-11T11:04:34.849Z,5.33
2019-03-11T11:07:06.511Z,12.63
2019-03-11T11:09:42.976Z,3.87
2019-03-11T11:12:15.704Z,3.87
2019-03-11T11:14:47.235Z,3.73
2019-03-11T11:17:25.893Z,3.63
2019-03-11T11:20:03.554Z,6.17
2019-03-11T11:22:34.554Z,5.23
2019-03-11T11:25:07.228Z,4.73
2019-03-11T11:27:38.894Z,5.80
2019-03-11T11:30:18.067Z,4.63
2019-03-11T11:32:49.775Z,3.97
2019-03-11T11:35:21.636Z,4.53
2019-03-11T11:37:56.231Z,4.43
2019-03-11T11:40:30.153Z,4.10
2019-03-11T11:43:03.029Z,5.97
2019-03-11T11:45:34.819Z,3.57
2019-03-11T11:48:09.406Z,6.80
2019-03-11T11:50:43.322Z,4.90
2019-03-11T11:53:17.379Z,3.50
2019-03-11T11:55:57.374Z,3.63
2019-03-11T11:58:27.887Z,7.93
2019-03-11T12:00:59.441Z,4.40
2019-03-11T12:03:32.534Z,7.50
2019-03-11T12:06:06.696Z,6.07
2019-03-11T12:08:41.056Z,5.60
2019-03-11T12:11:12.635Z,5.73
2019-03-11T12:13:44.175Z,5.27
2019-03-11T12:16:15.728Z,3.67
2019-03-11T12:18:49.153Z,5.80
2019-03-11T12:21:23.484Z,4.67
2019-03-11T12:23:55.086Z,4.00
2019-03-11T12:26:28.293Z,4.70
2019-03-11T12:29:04.227Z,6.13
2019-03-11T12:31:37.855Z,2.20
2019-03-11T12:34:14.365Z,4.50
2019-03-11T12:36:45.937Z,3.33
2019-03-11T12:39:21.387Z,4.17
2019-03-11T12:41:54.567Z,7.03
2019-03-11T12:44:28.863Z,4.93
2019-03-11T12:47:00.386Z,3.73
2019-03-11T12:49:34.045Z,2.90
2019-03-11T12:52:05.622Z,5.93
2019-03-11T12:54:37.152Z,3.37
2019-03-11T12:57:18.484Z,3.70
2019-03-11T12:59:51.154Z,4.70
2019-03-11T13:02:25.952Z,3.90
2019-03-11T13:05:01.237Z,2.50
2019-03-11T13:07:34.401Z,8.10
2019-03-11T13:10:08.502Z,6.57
2019-03-11T13:12:42.896Z,4.30
2019-03-11T13:15:17.910Z,2.83
2019-03-11T13:17:52.710Z,3.47
2019-03-11T13:20:35.399Z,3.83
2019-03-11T13:23:10.001Z,5.27
2019-03-11T13:25:45.939Z,3.20
2019-03-11T13:28:23.368Z,6.50
2019-03-11T13:30:58.103Z,3.80
2019-03-11T13:33:29.715Z,2.77
2019-03-11T13:36:01.397Z,3.30
2019-03-11T13:38:34.493Z,6.17
2019-03-11T13:41:07.676Z,3.50
2019-03-11T13:43:53.034Z,3.50
2019-03-11T13:46:21.389Z,5.30
2019-03-11T13:48:58.288Z,4.40
2019-03-11T13:51:30.678Z,3.37
2019-03-11T13:54:05.531Z,6.47
2019-03-11T13:56:37.225Z,4.50
2019-03-11T13:59:08.808Z,4.60
2019-03-11T14:01:41.945Z,8.27
2019-03-11T14:04:13.546Z,7.70
2019-03-11T14:06:48.746Z,4.17
2019-03-11T14:09:22.411Z,6.10
2019-03-11T14:11:54.249Z,5.92
2019-03-11T14:14:30.529Z,11.37
2019-03-11T14:17:02.073Z,5.20
2019-03-11T14:19:37.114Z,4.80
2019-03-11T14:22:08.799Z,4.87
2019-03-11T14:24:43.299Z,5.17
2019-03-11T14:27:16.245Z,2.33
2019-03-11T14:29:47.791Z,4.43
2019-03-11T14:32:24.551Z,4.43
2019-03-11T14:34:57.471Z,8.03
2019-03-11T14:37:34.243Z,2.10
2019-03-11T14:40:06.648Z,5.40
2019-03-11T14:42:38.304Z,4.67
2019-03-11T14:45:12.784Z,2.90
2019-03-11T14:47:44.559Z,2.07
2019-03-11T14:50:18.944Z,5.10
2019-03-11T14:52:53.547Z,4.90
2019-03-11T14:55:25.625Z,4.10
2019-03-11T14:58:00.946Z,3.90
2019-03-11T15:00:35.509Z,2.70
2019-03-11T15:03:07.129Z,3.43
2019-03-11T15:05:43.333Z,4.10
2019-03-11T15:08:15.093Z,4.10
2019-03-11T15:10:46.630Z,3.60
2019-03-11T15:13:18.203Z,3.83
2019-03-11T15:15:55.088Z,7.10
2019-03-11T15:18:26.705Z,3.93
2019-03-11T15:20:58.318Z,2.47
2019-03-11T15:23:32.997Z,4.03
2019-03-11T15:26:05.682Z,3.90
2019-03-11T15:28:38.920Z,6.13
2019-03-11T15:31:12.932Z,5.43
2019-03-11T15:33:46.330Z,4.92
2019-03-11T15:36:17.899Z,4.67
2019-03-11T15:38:49.611Z,2.90
2019-03-11T15:41:21.255Z,3.53
2019-03-11T15:43:53.034Z,2.43
2019-03-11T15:46:24.589Z,2.70
2019-03-11T15:48:56.198Z,5.00
2019-03-11T15:51:36.542Z,4.63
2019-03-11T15:54:03.933Z,5.30
2019-03-11T15:56:35.525Z,5.83
2019-03-11T15:59:08.726Z,3.33
2019-03-11T16:01:40.312Z,3.10
2019-03-11T16:04:11.918Z,2.47
2019-03-11T16:06:45.715Z,5.03
2019-03-11T16:09:19.683Z,2.57
2019-03-11T16:11:50.729Z,3.40
2019-03-11T16:14:22.399Z,2.00
2019-03-11T16:16:54.062Z,3.47
2019-03-11T16:19:25.746Z,3.87
2019-03-11T16:21:57.397Z,7.50
2019-03-11T16:24:31.025Z,3.93
2019-03-11T16:27:02.280Z,5.33
2019-03-11T16:29:38.513Z,4.90
2019-03-11T16:32:12.036Z,2.57
2019-03-11T16:34:44.609Z,5.20
2019-03-11T16:37:16.469Z,3.20
2019-03-11T16:39:48.350Z,3.33
2019-03-11T16:42:23.042Z,3.43
2019-03-11T16:44:54.643Z,8.60
2019-03-11T16:47:27.811Z,1.83
2019-03-11T16:50:02.834Z,3.50
2019-03-11T16:52:34.432Z,4.20
2019-03-11T16:55:09.304Z,4.00
2019-03-11T16:57:40.863Z,2.27
2019-03-11T17:00:22.706Z,1.80
2019-03-11T17:02:54.360Z,3.53
2019-03-11T17:05:25.934Z,3.47
2019-03-11T17:07:57.480Z,3.53
2019-03-11T17:10:32.535Z,5.87
2019-03-11T17:13:04.259Z,3.33
2019-03-11T17:15:35.847Z,5.07
2019-03-11T17:18:07.463Z,4.77
2019-03-11T17:20:39.016Z,3.13
2019-03-11T17:23:10.609Z,2.73
2019-03-11T17:25:42.220Z,3.30
2019-03-11T17:28:13.812Z,2.40
2019-03-11T17:30:45.480Z,3.80
2019-03-11T17:33:17.054Z,3.73
2019-03-11T17:35:48.656Z,3.17
2019-03-11T17:38:20.321Z,2.43
2019-03-11T17:40:51.982Z,2.80
2019-03-11T17:43:23.586Z,2.47
2019-03-11T17:45:55.147Z,3.27
2019-03-11T17:48:26.725Z,6.63
2019-03-11T17:50:58.320Z,3.67
2019-03-11T17:53:29.880Z,3.10
2019-03-11T17:56:01.641Z,2.90
2019-03-11T17:58:33.296Z,4.37
2019-03-11T18:01:05.312Z,9.37
2019-03-11T18:03:37.013Z,8.93
2019-03-11T18:06:11.899Z,6.43
2019-03-11T18:08:42.925Z,9.43
2019-03-11T18:11:14.502Z,8.77
2019-03-11T18:13:46.077Z,7.23
2019-03-11T18:16:17.844Z,7.90
2019-03-11T18:18:51.223Z,6.53
2019-03-11T18:21:23.326Z,6.00
2019-03-11T18:23:54.901Z,4.03
2019-03-11T18:26:29.200Z,4.90
2019-03-11T18:29:09.787Z,13.43
2019-03-11T18:31:44.804Z,3.47
2019-03-11T18:34:16.395Z,4.10
2019-03-11T18:36:48.013Z,3.57
2019-03-11T18:39:19.633Z,4.20
2019-03-11T18:41:51.183Z,4.20
2019-03-11T18:44:25.364Z,4.57
2019-03-11T18:46:56.970Z,8.40
2019-03-11T18:49:28.598Z,3.87
2019-03-11T18:52:00.178Z,4.33
2019-03-11T18:54:31.815Z,8.47
2019-03-11T18:57:03.417Z,5.97
2019-03-11T18:59:36.148Z,3.40
2019-03-11T19:02:08.898Z,4.57
2019-03-11T19:04:40.546Z,4.73
2019-03-11T19:07:12.158Z,3.80
2019-03-11T19:09:43.731Z,5.10
2019-03-11T19:12:15.548Z,4.60
2019-03-11T19:14:47.120Z,2.83
2019-03-11T19:17:18.752Z,4.43
2019-03-11T19:19:50.569Z,8.40
2019-03-11T19:22:22.199Z,5.70
2019-03-11T19:24:53.818Z,11.93
2019-03-11T19:27:27.752Z,9.57
2019-03-11T19:29:59.353Z,8.93
2019-03-11T19:32:38.180Z,8.23
2019-03-11T19:35:11.116Z,10.93
2019-03-11T19:37:42.707Z,7.60
2019-03-11T19:40:19.813Z,7.67
2019-03-11T19:42:54.059Z,7.20
2019-03-11T19:45:25.744Z,6.70
2019-03-11T19:47:57.337Z,4.03
2019-03-11T19:50:28.901Z,8.17
2019-03-11T19:53:00.500Z,5.30
2019-03-11T19:55:32.137Z,5.50
2019-03-11T19:58:03.724Z,5.97
2019-03-11T20:00:37.938Z,4.93
2019-03-11T20:03:22.677Z,4.70
2019-03-11T20:05:45.472Z,7.30
2019-03-11T20:08:20.014Z,6.50
2019-03-11T20:10:53.343Z,6.50
2019-03-11T20:13:24.911Z,5.90
2019-03-11T20:15:56.490Z,6.50
2019-03-11T20:18:33.521Z,10.47
2019-03-11T20:21:08.680Z,10.47
2019-03-11T20:23:40.391Z,3.90
2019-03-11T20:26:12.173Z,4.20
2019-03-11T20:28:49.341Z,4.30
2019-03-11T20:31:21.050Z,4.70
2019-03-11T20:33:54.276Z,6.23
2019-03-11T20:36:25.929Z,5.17
2019-03-11T20:39:00.295Z,3.80
2019-03-11T20:41:35.494Z,4.73
2019-03-11T20:44:07.217Z,6.10
2019-03-11T20:46:41.118Z,5.57
2019-03-11T20:49:21.991Z,5.53
2019-03-11T20:51:53.542Z,4.63
2019-03-11T20:54:25.195Z,4.60
2019-03-11T20:57:00.927Z,5.93
2019-03-11T20:59:31.560Z,6.50
2019-03-11T21:02:03.130Z,5.10
2019-03-11T21:04:34.745Z,5.83
2019-03-11T21:07:06.344Z,5.00
2019-03-11T21:09:40.034Z,5.70
2019-03-11T21:12:11.550Z,4.87
2019-03-11T21:14:45.927Z,6.20
2019-03-11T21:17:25.599Z,5.47
2019-03-11T21:19:54.021Z,3.47
2019-03-11T21:22:25.632Z,6.17
2019-03-11T21:24:59.846Z,3.57
2019-03-11T21:27:33.494Z,4.17
2019-03-11T21:30:05.597Z,4.70
2019-03-11T21:32:40.905Z,6.30
2019-03-11T21:35:15.773Z,2.90
2019-03-11T21:37:51.337Z,5.10
2019-03-11T21:40:27.322Z,4.73
2019-03-11T21:42:59.011Z,6.43
2019-03-11T21:45:34.391Z,3.70
2019-03-11T21:48:03.933Z,3.80
2019-03-11T21:50:35.615Z,5.80
2019-03-11T21:53:11.722Z,4.03
2019-03-11T21:55:47.371Z,5.43
2019-03-11T21:58:19.001Z,5.03
2019-03-11T22:00:50.576Z,4.13
2019-03-11T22:03:22.132Z,2.53
2019-03-11T22:05:56.061Z,9.37
2019-03-11T22:08:28.819Z,3.43
2019-03-11T22:11:01.493Z,7.93
2019-03-11T22:13:33.093Z,4.30
2019-03-11T22:16:05.817Z,4.37
2019-03-11T22:18:42.869Z,5.60
2019-03-11T22:21:17.754Z,6.20
2019-03-11T22:23:52.389Z,4.23
2019-03-11T22:26:23.951Z,4.03
2019-03-11T22:28:55.528Z,3.57
2019-03-11T22:31:27.115Z,9.00
2019-03-11T22:34:00.854Z,5.80
2019-03-11T22:36:32.413Z,4.30
2019-03-11T22:39:06.942Z,3.73
2019-03-11T22:41:38.506Z,4.13
2019-03-11T22:44:10.042Z,5.00
2019-03-11T22:46:41.624Z,5.83
2019-03-11T22:49:15.953Z,5.53
2019-03-11T22:51:47.534Z,5.03
2019-03-11T22:54:19.102Z,4.60
2019-03-11T22:56:57.216Z,3.00
2019-03-11T22:59:34.913Z,4.10
2019-03-11T23:02:11.661Z,5.27
2019-03-11T23:04:43.281Z,7.30
2019-03-11T23:07:14.868Z,5.33
2019-03-11T23:09:47.567Z,4.23
2019-03-11T23:12:21.899Z,6.10
2019-03-11T23:14:56.348Z,4.03
2019-03-11T23:17:27.916Z,6.87
2019-03-11T23:19:59.476Z,3.30
2019-03-11T23:22:31.056Z,4.27
2019-03-11T23:25:04.082Z,3.80
2019-03-11T23:27:35.641Z,6.70
2019-03-11T23:30:08.942Z,3.97
2019-03-11T23:32:40.506Z,2.77
2019-03-11T23:35:16.954Z,3.53
2019-03-11T23:37:48.537Z,7.50
2019-03-11T23:40:20.091Z,4.93
2019-03-11T23:42:54.667Z,4.70
2019-03-11T23:45:27.840Z,6.00
2019-03-11T23:47:59.403Z,6.00
2019-03-11T23:50:33.489Z,5.83
2019-03-11T23:53:06.962Z,5.40
2019-03-11T23:55:46.693Z,6.87
2019-03-11T23:58:19.731Z,5.20
